createdAt,value
2019-06-27T00:00:00.157Z,99043.00
2019-06-27T00:02:28.408Z,99039.00
2019-06-27T00:04:55.961Z,99036.00
2019-06-27T00:07:23.446Z,99039.00
2019-06-27T00:09:51.303Z,99036.00
2019-06-27T00:12:18.975Z,99040.00
2019-06-27T00:14:46.633Z,99032.00
2019-06-27T00:17:14.471Z,99035.00
2019-06-27T00:19:42.092Z,99038.00
2019-06-27T00:22:09.617Z,99033.00
2019-06-27T00:24:37.278Z,99029.00
2019-06-27T00:27:04.731Z,99032.00
2019-06-27T00:29:32.283Z,99031.00
2019-06-27T00:31:59.887Z,99026.00
2019-06-27T00:34:27.325Z,99027.00
2019-06-27T00:36:54.488Z,99026.00
2019-06-27T00:39:22.183Z,99029.00
2019-06-27T00:41:50.283Z,99032.00
2019-06-27T00:44:17.950Z,99027.00
2019-06-27T00:46:45.951Z,99022.00
2019-06-27T00:49:13.468Z,99026.00
2019-06-27T00:51:40.820Z,99025.00
2019-06-27T00:54:08.018Z,99024.00
2019-06-27T00:56:36.229Z,99019.00
2019-06-27T00:59:03.913Z,99017.00
2019-06-27T01:01:31.365Z,99023.00
2019-06-27T01:03:58.792Z,99016.00
2019-06-27T01:06:26.284Z,99012.00
2019-06-27T01:08:53.882Z,99019.00
2019-06-27T01:11:21.298Z,99019.00
2019-06-27T01:13:48.914Z,99011.00
2019-06-27T01:16:16.213Z,99017.00
2019-06-27T01:18:43.570Z,99016.00
2019-06-27T01:21:11.075Z,99014.00
2019-06-27T01:23:38.533Z,99010.00
2019-06-27T01:26:06.034Z,99010.00
2019-06-27T01:28:33.305Z,99008.00
2019-06-27T01:31:00.875Z,99012.00
2019-06-27T01:33:28.838Z,99005.00
2019-06-27T01:38:23.820Z,99010.00
2019-06-27T01:40:51.188Z,99013.00
2019-06-27T01:43:18.693Z,99017.00
2019-06-27T01:45:56.643Z,99019.00
2019-06-27T01:48:24.203Z,99019.00
2019-06-27T01:50:51.795Z,99018.00
2019-06-27T01:53:19.567Z,99023.00
2019-06-27T01:55:47.511Z,99016.00
2019-06-27T01:58:14.946Z,99017.00
2019-06-27T02:00:42.600Z,99019.00
2019-06-27T02:03:10.364Z,99020.00
2019-06-27T02:05:37.893Z,99020.00
2019-06-27T02:10:35.545Z,99026.00
2019-06-27T02:13:03.165Z,99023.00
2019-06-27T02:15:30.638Z,99022.00
2019-06-27T02:17:58.162Z,99028.00
2019-06-27T02:20:26.028Z,99017.00
2019-06-27T02:22:54.293Z,99012.00
2019-06-27T02:25:22.663Z,99023.00
2019-06-27T02:28:03.127Z,99021.00
2019-06-27T02:30:24.558Z,99016.00
2019-06-27T02:32:52.098Z,99022.00
2019-06-27T02:35:19.480Z,99023.00
2019-06-27T02:37:47.077Z,99027.00
2019-06-27T02:40:14.989Z,99026.00
2019-06-27T02:42:42.494Z,99022.00
2019-06-27T02:45:10.477Z,99021.00
2019-06-27T02:47:38.006Z,99026.00
2019-06-27T02:50:06.569Z,99026.00
2019-06-27T02:52:34.083Z,99024.00
2019-06-27T02:55:01.969Z,99023.00
2019-06-27T02:57:30.167Z,99021.00
2019-06-27T02:59:57.896Z,99030.00
2019-06-27T03:02:25.396Z,99026.00
2019-06-27T03:04:52.938Z,99030.00
2019-06-27T03:07:20.368Z,99032.00
2019-06-27T03:09:47.622Z,99035.00
2019-06-27T03:12:15.427Z,99041.00
2019-06-27T03:14:42.575Z,99037.00
2019-06-27T03:17:10.071Z,99041.00
2019-06-27T03:19:38.285Z,99035.00
2019-06-27T03:22:06.621Z,99035.00
2019-06-27T03:24:34.160Z,99036.00
2019-06-27T03:27:01.688Z,99033.00
2019-06-27T03:29:29.145Z,99036.00
2019-06-27T03:31:56.334Z,99038.00
2019-06-27T03:34:23.852Z,99030.00
2019-06-27T03:36:51.561Z,99037.00
2019-06-27T03:39:18.866Z,99034.00
2019-06-27T03:44:16.649Z,99027.00
2019-06-27T03:46:44.765Z,99030.00
2019-06-27T03:49:12.372Z,99028.00
2019-06-27T03:51:39.836Z,99036.00
2019-06-27T03:54:07.387Z,99037.00
2019-06-27T03:56:34.879Z,99036.00
2019-06-27T03:59:12.260Z,99028.00
2019-06-27T04:01:31.817Z,99034.00
2019-06-27T04:03:59.559Z,99038.00
2019-06-27T04:06:27.224Z,99037.00
2019-06-27T04:08:54.937Z,99035.00
2019-06-27T04:11:22.393Z,99039.00
2019-06-27T04:13:49.713Z,99034.00
2019-06-27T04:16:17.460Z,99034.00
2019-06-27T04:18:45.115Z,99032.00
2019-06-27T04:21:12.628Z,99031.00
2019-06-27T04:23:40.244Z,99031.00
2019-06-27T04:26:07.696Z,99026.00
2019-06-27T04:28:35.593Z,99028.00
2019-06-27T04:31:03.135Z,99035.00
2019-06-27T04:33:30.714Z,99033.00
2019-06-27T04:35:58.137Z,99026.00
2019-06-27T04:38:25.698Z,99029.00
2019-06-27T04:40:53.156Z,99024.00
2019-06-27T04:43:20.223Z,99021.00
2019-06-27T04:45:47.546Z,99018.00
2019-06-27T04:48:15.182Z,99027.00
2019-06-27T04:50:42.554Z,99020.00
2019-06-27T04:53:10.037Z,99023.00
2019-06-27T04:55:37.680Z,99033.00
2019-06-27T04:58:05.132Z,99029.00
2019-06-27T05:00:32.589Z,99022.00
2019-06-27T05:03:00.268Z,99036.00
2019-06-27T05:05:27.689Z,99024.00
2019-06-27T05:07:55.194Z,99018.00
2019-06-27T05:10:22.933Z,99009.00
2019-06-27T05:12:50.906Z,99006.00
2019-06-27T05:15:18.832Z,99008.00
2019-06-27T05:17:46.263Z,99002.00
2019-06-27T05:20:14.032Z,99007.00
2019-06-27T05:22:41.508Z,99025.00
2019-06-27T05:25:09.038Z,99025.00
2019-06-27T05:27:36.702Z,99033.00
2019-06-27T05:30:10.037Z,99026.00
2019-06-27T05:32:37.162Z,99033.00
2019-06-27T05:35:05.598Z,99033.00
2019-06-27T05:37:33.143Z,99025.00
2019-06-27T05:40:00.597Z,99026.00
2019-06-27T05:42:28.164Z,99030.00
2019-06-27T05:44:55.668Z,99026.00
2019-06-27T05:47:23.067Z,99034.00
2019-06-27T05:49:50.592Z,99033.00
2019-06-27T05:52:18.337Z,99033.00
2019-06-27T05:54:45.885Z,99038.00
2019-06-27T05:57:13.672Z,99033.00
2019-06-27T05:59:41.203Z,99034.00
2019-06-27T06:02:08.554Z,99034.00
2019-06-27T06:04:36.020Z,99038.00
2019-06-27T06:07:03.473Z,99035.00
2019-06-27T06:09:32.948Z,99036.00
2019-06-27T06:12:00.393Z,99040.00
2019-06-27T06:14:27.842Z,99036.00
2019-06-27T06:16:55.433Z,99037.00
2019-06-27T06:19:22.957Z,99035.00
2019-06-27T06:21:50.435Z,99043.00
2019-06-27T06:24:17.978Z,99037.00
2019-06-27T06:26:45.537Z,99034.00
2019-06-27T06:29:13.068Z,99034.00
2019-06-27T06:31:40.611Z,99033.00
2019-06-27T06:34:08.058Z,99034.00
2019-06-27T06:36:35.561Z,99031.00
2019-06-27T06:39:05.598Z,99032.00
2019-06-27T06:41:33.048Z,99023.00
2019-06-27T06:44:02.304Z,99020.00
2019-06-27T06:46:29.790Z,99023.00
2019-06-27T06:48:57.302Z,99018.00
2019-06-27T06:51:24.818Z,99015.00
2019-06-27T06:53:51.934Z,99019.00
2019-06-27T06:56:19.321Z,99009.00
2019-06-27T06:58:46.663Z,99008.00
2019-06-27T07:01:17.351Z,99004.00
2019-06-27T07:03:45.031Z,99006.00
2019-06-27T07:06:12.517Z,99001.00
2019-06-27T07:08:40.343Z,98999.00
2019-06-27T07:11:07.833Z,99002.00
2019-06-27T07:13:37.435Z,99003.00
2019-06-27T07:16:05.243Z,99007.00
2019-06-27T07:18:33.940Z,99003.00
2019-06-27T07:21:01.645Z,98997.00
2019-06-27T07:23:29.467Z,99001.00
2019-06-27T07:25:57.084Z,99006.00
2019-06-27T07:28:24.586Z,99005.00
2019-06-27T07:30:52.227Z,99011.00
2019-06-27T07:33:19.713Z,99009.00
2019-06-27T07:35:47.698Z,99004.00
2019-06-27T07:38:15.372Z,99000.00
2019-06-27T07:40:43.492Z,99000.00
2019-06-27T07:43:10.909Z,99000.00
2019-06-27T07:45:38.462Z,98991.00
2019-06-27T07:48:05.928Z,98998.00
2019-06-27T07:50:33.771Z,98998.00
2019-06-27T07:53:01.336Z,98999.00
2019-06-27T07:55:29.367Z,98999.00
2019-06-27T07:57:56.794Z,98988.00
2019-06-27T08:00:25.500Z,98997.00
2019-06-27T08:02:53.152Z,98995.00
2019-06-27T08:05:20.783Z,98995.00
2019-06-27T08:07:48.588Z,98997.00
2019-06-27T08:10:17.163Z,99000.00
2019-06-27T08:12:44.780Z,98995.00
2019-06-27T08:15:13.347Z,99003.00
2019-06-27T08:17:41.114Z,98998.00
2019-06-27T08:20:09.815Z,99001.00
2019-06-27T08:22:37.275Z,98996.00
2019-06-27T08:25:07.052Z,98992.00
2019-06-27T08:27:35.236Z,98993.00
2019-06-27T08:30:08.622Z,98992.00
2019-06-27T08:32:36.792Z,98992.00
2019-06-27T08:35:07.337Z,98980.00
2019-06-27T08:37:36.048Z,98988.00
2019-06-27T08:40:07.451Z,98987.00
2019-06-27T08:42:35.292Z,98994.00
2019-06-27T08:45:07.542Z,98985.00
2019-06-27T08:47:35.242Z,98994.00
2019-06-27T08:50:06.326Z,98991.00
2019-06-27T08:52:33.900Z,98996.00
2019-06-27T08:55:01.045Z,98998.00
2019-06-27T08:57:28.496Z,98992.00
2019-06-27T08:59:56.416Z,98995.00
2019-06-27T09:02:24.031Z,98992.00
2019-06-27T09:04:51.478Z,98996.00
2019-06-27T09:07:19.246Z,98994.00
2019-06-27T09:09:46.820Z,98985.00
2019-06-27T09:12:14.451Z,98994.00
2019-06-27T09:14:41.881Z,98988.00
2019-06-27T09:17:09.360Z,98983.00
2019-06-27T09:19:37.040Z,98986.00
2019-06-27T09:22:04.615Z,98984.00
2019-06-27T09:24:32.186Z,98982.00
2019-06-27T09:26:59.794Z,98986.00
2019-06-27T09:29:27.455Z,98982.00
2019-06-27T09:31:55.351Z,98987.00
2019-06-27T09:34:22.815Z,98984.00
2019-06-27T09:36:50.028Z,98986.00
2019-06-27T09:39:17.905Z,98986.00
2019-06-27T09:41:45.314Z,98987.00
2019-06-27T09:44:13.276Z,98982.00
2019-06-27T09:46:40.765Z,98983.00
2019-06-27T09:49:08.414Z,98984.00
2019-06-27T09:51:35.901Z,98981.00
2019-06-27T09:54:03.372Z,98976.00
2019-06-27T09:56:31.060Z,98979.00
2019-06-27T09:58:58.721Z,98975.00
2019-06-27T10:01:26.267Z,98968.00
2019-06-27T10:03:53.713Z,98957.00
2019-06-27T10:06:21.564Z,98967.00
2019-06-27T10:08:49.495Z,98962.00
2019-06-27T10:11:17.195Z,98968.00
2019-06-27T10:13:44.860Z,98958.00
2019-06-27T10:16:12.724Z,98959.00
2019-06-27T10:18:39.946Z,98957.00
2019-06-27T10:21:07.405Z,98947.00
2019-06-27T10:23:34.906Z,98946.00
2019-06-27T10:26:02.582Z,98959.00
2019-06-27T10:28:30.120Z,98947.00
2019-06-27T10:30:57.964Z,98943.00
2019-06-27T10:33:25.487Z,98938.00
2019-06-27T10:35:52.981Z,98934.00
2019-06-27T10:38:20.537Z,98938.00
2019-06-27T10:40:47.863Z,98936.00
2019-06-27T10:43:15.690Z,98927.00
2019-06-27T10:45:43.454Z,98929.00
2019-06-27T10:48:11.566Z,98935.00
2019-06-27T10:50:38.851Z,98924.00
2019-06-27T10:53:06.437Z,98922.00
2019-06-27T10:55:33.997Z,98917.00
2019-06-27T10:58:01.416Z,98914.00
2019-06-27T11:00:29.031Z,98913.00
2019-06-27T11:02:56.831Z,98903.00
2019-06-27T11:05:24.573Z,98895.00
2019-06-27T11:07:52.608Z,98891.00
2019-06-27T11:10:20.127Z,98901.00
2019-06-27T11:12:47.581Z,98902.00
2019-06-27T11:15:16.024Z,98898.00
2019-06-27T11:17:43.919Z,98893.00
2019-06-27T11:20:14.933Z,98893.00
2019-06-27T11:22:41.022Z,98885.00
2019-06-27T11:25:08.843Z,98876.00
2019-06-27T11:27:36.349Z,98873.00
2019-06-27T11:30:07.939Z,98862.00
2019-06-27T11:32:35.268Z,98852.00
2019-06-27T11:35:03.859Z,98861.00
2019-06-27T11:37:31.269Z,98871.00
2019-06-27T11:39:58.628Z,98862.00
2019-06-27T11:42:29.550Z,98861.00
2019-06-27T11:44:55.033Z,98848.00
2019-06-27T11:49:50.037Z,98862.00
2019-06-27T11:52:17.355Z,98861.00
2019-06-27T11:54:44.721Z,98859.00
2019-06-27T11:57:11.907Z,98860.00
2019-06-27T11:59:39.493Z,98856.00
2019-06-27T12:02:07.334Z,98850.00
2019-06-27T12:04:34.865Z,98849.00
2019-06-27T12:07:02.438Z,98859.00
2019-06-27T12:09:29.638Z,98866.00
2019-06-27T12:11:56.925Z,98860.00
2019-06-27T12:14:24.508Z,98859.00
2019-06-27T12:16:52.041Z,98846.00
2019-06-27T12:19:19.512Z,98838.00
2019-06-27T12:21:46.762Z,98832.00
2019-06-27T12:24:14.383Z,98824.00
2019-06-27T12:26:41.768Z,98817.00
2019-06-27T12:29:09.431Z,98814.00
2019-06-27T12:31:37.041Z,98796.00
2019-06-27T12:34:07.201Z,98801.00
2019-06-27T12:36:33.881Z,98796.00
2019-06-27T12:39:01.952Z,98783.00
2019-06-27T12:41:29.425Z,98777.00
2019-06-27T12:43:56.829Z,98770.00
2019-06-27T12:46:24.353Z,98770.00
2019-06-27T12:48:52.021Z,98767.00
2019-06-27T12:51:19.766Z,98769.00
2019-06-27T12:53:47.184Z,98785.00
2019-06-27T12:56:14.841Z,98806.00
2019-06-27T12:58:42.656Z,98814.00
2019-06-27T13:01:09.844Z,98804.00
2019-06-27T13:03:37.262Z,98804.00
2019-06-27T13:06:04.871Z,98786.00
2019-06-27T13:08:32.711Z,98798.00
2019-06-27T13:10:59.804Z,98792.00
2019-06-27T13:13:30.368Z,98823.00
2019-06-27T13:15:56.455Z,98859.00
2019-06-27T13:18:24.058Z,98870.00
2019-06-27T13:20:57.662Z,98855.00
2019-06-27T13:23:20.515Z,98854.00
2019-06-27T13:25:48.055Z,98844.00
2019-06-27T13:28:15.450Z,98838.00
2019-06-27T13:30:42.942Z,98830.00
2019-06-27T13:33:10.243Z,98825.00
2019-06-27T13:35:37.518Z,98814.00
2019-06-27T13:38:05.107Z,98817.00
2019-06-27T13:40:32.409Z,98817.00
2019-06-27T13:42:59.569Z,98817.00
2019-06-27T13:45:27.010Z,98821.00
2019-06-27T13:47:54.492Z,98826.00
2019-06-27T13:50:21.792Z,98839.00
2019-06-27T13:52:49.057Z,98827.00
2019-06-27T13:55:16.203Z,98814.00
2019-06-27T13:57:43.633Z,98813.00
2019-06-27T14:00:11.545Z,98808.00
2019-06-27T14:02:38.795Z,98795.00
2019-06-27T14:05:07.577Z,98802.00
2019-06-27T14:07:35.054Z,98813.00
2019-06-27T14:10:04.800Z,98809.00
2019-06-27T14:12:32.528Z,98806.00
2019-06-27T14:15:00.552Z,98807.00
2019-06-27T14:17:27.851Z,98805.00
2019-06-27T14:19:55.385Z,98799.00
2019-06-27T14:22:32.655Z,98798.00
2019-06-27T14:27:20.648Z,98805.00
2019-06-27T14:29:51.208Z,98815.00
2019-06-27T14:32:18.503Z,98802.00
2019-06-27T14:34:45.852Z,98776.00
2019-06-27T14:39:41.682Z,98787.00
2019-06-27T14:42:09.527Z,98799.00
2019-06-27T14:44:36.673Z,98786.00
2019-06-27T14:49:31.343Z,98808.00
2019-06-27T14:51:58.772Z,98815.00
2019-06-27T14:54:26.127Z,98828.00
2019-06-27T14:56:53.550Z,98826.00
2019-06-27T14:59:20.798Z,98774.00
2019-06-27T15:01:48.091Z,98774.00
2019-06-27T15:04:15.469Z,98780.00
2019-06-27T15:06:43.156Z,98781.00
2019-06-27T15:09:10.465Z,98767.00
2019-06-27T15:11:37.738Z,98781.00
2019-06-27T15:14:04.816Z,98793.00
2019-06-27T15:16:32.149Z,98795.00
2019-06-27T15:18:59.500Z,98777.00
2019-06-27T15:21:26.815Z,98777.00
2019-06-27T15:23:54.346Z,98786.00
2019-06-27T15:26:21.723Z,98811.00
2019-06-27T15:28:48.919Z,98804.00
2019-06-27T15:31:16.793Z,98804.00
2019-06-27T15:33:44.356Z,98808.00
2019-06-27T15:36:11.813Z,98807.00
2019-06-27T15:38:39.359Z,98784.00
2019-06-27T15:41:06.838Z,98793.00
2019-06-27T15:43:34.379Z,98797.00
2019-06-27T15:46:01.960Z,98801.00
2019-06-27T15:48:29.338Z,98799.00
2019-06-27T15:53:24.412Z,98806.00
2019-06-27T15:55:51.928Z,98807.00
2019-06-27T15:58:19.458Z,98803.00
2019-06-27T16:00:46.982Z,98813.00
2019-06-27T16:03:14.489Z,98803.00
2019-06-27T16:05:41.998Z,98795.00
2019-06-27T16:08:09.149Z,98796.00
2019-06-27T16:10:36.402Z,98787.00
2019-06-27T16:13:03.783Z,98787.00
2019-06-27T16:15:31.300Z,98779.00
2019-06-27T16:17:58.940Z,98777.00
2019-06-27T16:20:26.540Z,98770.00
2019-06-27T16:25:21.358Z,98769.00
2019-06-27T16:27:48.619Z,98761.00
2019-06-27T16:30:17.672Z,98761.00
2019-06-27T16:32:44.947Z,98767.00
2019-06-27T16:35:12.854Z,98757.00
2019-06-27T16:37:40.216Z,98764.00
2019-06-27T16:40:08.892Z,98754.00
2019-06-27T16:42:36.261Z,98762.00
2019-06-27T16:45:07.601Z,98762.00
2019-06-27T16:47:34.979Z,98761.00
2019-06-27T16:50:02.441Z,98753.00
2019-06-27T16:52:29.777Z,98759.00
2019-06-27T16:54:56.980Z,98761.00
2019-06-27T16:57:24.587Z,98760.00
2019-06-27T16:59:52.096Z,98752.00
2019-06-27T17:02:19.936Z,98754.00
2019-06-27T17:04:47.506Z,98757.00
2019-06-27T17:07:15.065Z,98760.00
2019-06-27T17:09:42.700Z,98763.00
2019-06-27T17:12:16.100Z,98771.00
2019-06-27T17:14:43.701Z,98777.00
2019-06-27T17:17:11.226Z,98780.00
2019-06-27T17:19:39.764Z,98780.00
2019-06-27T17:22:07.575Z,98780.00
2019-06-27T17:24:34.832Z,98776.00
2019-06-27T17:27:02.352Z,98772.00
2019-06-27T17:29:31.291Z,98772.00
2019-06-27T17:31:58.674Z,98776.00
2019-06-27T17:34:26.498Z,98778.00
2019-06-27T17:36:57.803Z,98784.00
2019-06-27T17:39:23.304Z,98784.00
2019-06-27T17:41:50.717Z,98786.00
2019-06-27T17:44:19.987Z,98778.00
2019-06-27T17:46:47.147Z,98780.00
2019-06-27T17:49:16.330Z,98772.00
2019-06-27T17:51:43.549Z,98775.00
2019-06-27T17:54:10.674Z,98785.00
2019-06-27T17:59:08.005Z,98784.00
2019-06-27T18:01:35.155Z,98792.00
2019-06-27T18:04:04.149Z,98807.00
2019-06-27T18:06:31.551Z,98803.00
2019-06-27T18:08:58.704Z,98798.00
2019-06-27T18:11:26.129Z,98803.00
2019-06-27T18:13:53.358Z,98804.00
2019-06-27T18:16:20.761Z,98800.00
2019-06-27T18:18:48.176Z,98792.00
2019-06-27T18:21:15.676Z,98793.00
2019-06-27T18:23:43.193Z,98800.00
2019-06-27T18:26:10.866Z,98791.00
2019-06-27T18:28:38.279Z,98802.00
2019-06-27T18:31:05.754Z,98804.00
2019-06-27T18:33:33.431Z,98809.00
2019-06-27T18:36:03.149Z,98801.00
2019-06-27T18:41:05.589Z,98812.00
2019-06-27T18:43:33.251Z,98806.00
2019-06-27T18:46:01.400Z,98807.00
2019-06-27T18:48:29.927Z,98808.00
2019-06-27T18:53:25.096Z,98807.00
2019-06-27T18:55:52.652Z,98817.00
2019-06-27T18:58:20.159Z,98805.00
2019-06-27T19:00:48.125Z,98809.00
2019-06-27T19:03:15.991Z,98820.00
2019-06-27T19:05:43.757Z,98825.00
2019-06-27T19:08:12.077Z,98826.00
2019-06-27T19:10:39.801Z,98829.00
2019-06-27T19:13:07.288Z,98829.00
2019-06-27T19:15:34.774Z,98834.00
2019-06-27T19:18:02.272Z,98836.00
2019-06-27T19:20:31.666Z,98844.00
2019-06-27T19:25:30.386Z,98852.00
2019-06-27T19:27:58.003Z,98861.00
2019-06-27T19:30:25.902Z,98855.00
2019-06-27T19:32:53.486Z,98859.00
2019-06-27T19:35:21.125Z,98863.00
2019-06-27T19:38:01.297Z,98864.00
2019-06-27T19:40:17.916Z,98861.00
2019-06-27T19:42:45.472Z,98866.00
2019-06-27T19:45:13.629Z,98874.00
2019-06-27T19:47:41.266Z,98874.00
2019-06-27T19:50:09.392Z,98872.00
2019-06-27T19:52:36.889Z,98878.00
2019-06-27T19:55:06.501Z,98874.00
2019-06-27T19:57:34.114Z,98873.00
2019-06-27T20:00:03.923Z,98884.00
2019-06-27T20:02:31.474Z,98887.00
2019-06-27T20:04:59.302Z,98893.00
2019-06-27T20:07:27.616Z,98899.00
2019-06-27T20:09:55.337Z,98898.00
2019-06-27T20:12:22.826Z,98905.00
2019-06-27T20:14:53.135Z,98904.00
2019-06-27T20:17:22.879Z,98908.00
2019-06-27T20:19:54.133Z,98911.00
2019-06-27T20:22:25.196Z,98911.00
2019-06-27T20:24:56.271Z,98914.00
2019-06-27T20:27:31.473Z,98916.00
2019-06-27T20:30:00.077Z,98923.00
2019-06-27T20:32:30.892Z,98925.00
2019-06-27T20:35:01.195Z,98927.00
2019-06-27T20:37:30.427Z,98926.00
2019-06-27T20:40:05.993Z,98924.00
2019-06-27T20:42:41.397Z,98934.00
2019-06-27T20:45:10.807Z,98939.00
2019-06-27T20:47:43.404Z,98945.00
2019-06-27T20:50:21.116Z,98938.00
2019-06-27T20:52:50.002Z,98949.00
2019-06-27T20:55:21.759Z,98949.00
2019-06-27T20:57:49.973Z,98950.00
2019-06-27T21:00:22.517Z,98960.00
2019-06-27T21:03:36.442Z,98960.00
2019-06-27T21:06:07.178Z,98961.00
2019-06-27T21:08:51.506Z,98963.00
2019-06-27T21:11:16.731Z,98963.00
2019-06-27T21:14:23.320Z,98968.00
2019-06-27T21:16:56.981Z,98974.00
2019-06-27T21:19:27.025Z,98973.00
2019-06-27T21:21:58.908Z,98978.00
2019-06-27T21:24:29.814Z,98981.00
2019-06-27T21:27:00.397Z,98986.00
2019-06-27T21:29:29.699Z,98982.00
2019-06-27T21:32:00.197Z,99002.00
2019-06-27T21:34:29.233Z,99011.00
2019-06-27T21:36:56.874Z,99008.00
2019-06-27T21:39:24.585Z,99010.00
2019-06-27T21:41:52.040Z,99007.00
2019-06-27T21:44:19.714Z,99000.00
2019-06-27T21:46:47.368Z,99007.00
2019-06-27T21:49:15.023Z,99015.00
2019-06-27T21:51:42.786Z,99011.00
2019-06-27T21:54:10.689Z,99019.00
2019-06-27T21:56:38.562Z,99017.00
2019-06-27T21:59:06.445Z,99024.00
2019-06-27T22:01:34.824Z,99034.00
2019-06-27T22:04:02.080Z,99029.00
2019-06-27T22:06:29.551Z,99022.00
2019-06-27T22:08:56.913Z,99027.00
2019-06-27T22:11:58.383Z,99030.00
2019-06-27T22:14:25.937Z,99028.00
2019-06-27T22:16:53.191Z,99034.00
2019-06-27T22:19:20.691Z,99038.00
2019-06-27T22:22:18.969Z,99039.00
2019-06-27T22:24:46.694Z,99041.00
2019-06-27T22:27:14.246Z,99044.00
2019-06-27T22:29:41.823Z,99044.00
2019-06-27T22:32:10.795Z,99049.00
2019-06-27T22:34:38.347Z,99056.00
2019-06-27T22:37:06.126Z,99051.00
2019-06-27T22:39:52.015Z,99052.00
2019-06-27T22:43:21.104Z,99054.00
2019-06-27T22:46:06.785Z,99051.00
2019-06-27T22:48:34.035Z,99054.00
2019-06-27T22:51:03.755Z,99049.00
2019-06-27T22:53:49.096Z,99057.00
2019-06-27T22:56:16.971Z,99057.00
2019-06-27T22:58:44.500Z,99066.00
2019-06-27T23:01:12.416Z,99055.00
2019-06-27T23:03:39.996Z,99059.00
2019-06-27T23:06:07.445Z,99061.00
2019-06-27T23:08:34.986Z,99061.00
2019-06-27T23:11:02.644Z,99052.00
2019-06-27T23:13:29.994Z,99051.00
2019-06-27T23:15:57.250Z,99052.00
2019-06-27T23:18:25.366Z,99050.00
2019-06-27T23:20:53.289Z,99050.00
2019-06-27T23:23:20.845Z,99051.00
2019-06-27T23:25:48.560Z,99059.00
2019-06-27T23:28:16.621Z,99070.00
2019-06-27T23:30:43.881Z,99067.00
2019-06-27T23:33:11.596Z,99062.00
2019-06-27T23:35:57.475Z,99064.00
2019-06-27T23:38:25.287Z,99058.00
2019-06-27T23:40:52.591Z,99064.00
2019-06-27T23:43:20.470Z,99065.00
2019-06-27T23:45:48.062Z,99064.00
2019-06-27T23:48:15.286Z,99065.00
2019-06-27T23:50:42.976Z,99060.00
2019-06-27T23:53:11.100Z,99060.00
2019-06-27T23:55:38.706Z,99060.00
2019-06-27T23:58:06.223Z,99053.00
